Time;durP1;ratioP1;P1;durP2;ratioP2;P2;SDS_P1;SDS_P2;PMS_P1;PMS_P2;Temp;Humidity;BMP_temperature;BMP_pressure;BME280_temperature;BME280_humidity;BME280_pressure;Samples;Min_cycle;Max_cycle;Signal;HPM_P1;HPM_P2
2022/06/05 00:01:10;;;;;;;11.33;9.70;;;;;;;;;;5059333;28;20872;-87
2022/06/05 00:03:43;;;;;;;10.70;10.00;;;;;;;;;;5058714;28;20433;-85
2022/06/05 00:06:13;;;;;;;10.07;9.17;;;;;;;;;;5060104;28;20430;-84
2022/06/05 00:08:48;;;;;;;10.20;9.40;;;;;;;;;;5060628;28;20461;-84
2022/06/05 00:11:15;;;;;;;10.40;9.70;;;;;;;;;;5059678;28;20487;-84
2022/06/05 00:13:44;;;;;;;10.00;9.30;;;;;;;;;;5057741;28;20646;-85
2022/06/05 00:16:14;;;;;;;9.93;9.20;;;;;;;;;;5057374;28;20491;-85
2022/06/05 00:18:42;;;;;;;10.30;9.50;;;;;;;;;;5057233;28;20489;-84
2022/06/05 00:21:10;;;;;;;10.70;9.90;;;;;;;;;;5058479;28;20460;-85
2022/06/05 00:23:38;;;;;;;10.47;9.67;;;;;;;;;;5057890;28;20438;-84
2022/06/05 00:26:10;;;;;;;9.90;9.30;;;;;;;;;;5059045;28;20874;-85
2022/06/05 00:28:39;;;;;;;11.17;10.37;;;;;;;;;;5068384;28;20437;-85
2022/06/05 00:31:13;;;;;;;10.90;10.10;;;;;;;;;;5070361;28;20442;-85
2022/06/05 00:33:42;;;;;;;10.93;10.07;;;;;;;;;;5070454;28;20473;-85
2022/06/05 00:36:14;;;;;;;10.60;10.00;;;;;;;;;;5070882;28;20438;-85
2022/06/05 00:38:42;;;;;;;10.37;9.40;;;;;;;;;;5071532;28;20511;-84
2022/06/05 00:41:19;;;;;;;10.33;9.70;;;;;;;;;;5072475;28;20492;-84
2022/06/05 00:43:46;;;;;;;10.90;9.90;;;;;;;;;;5063961;28;20511;-85
2022/06/05 00:46:13;;;;;;;11.33;10.53;;;;;;;;;;5057743;28;20920;-85
2022/06/05 00:48:41;;;;;;;11.20;10.40;;;;;;;;;;5056528;28;20824;-85
2022/06/05 00:51:08;;;;;;;12.80;11.70;;;;;;;;;;5057830;28;20441;-86
2022/06/05 00:53:35;;;;;;;11.97;11.17;;;;;;;;;;5057525;28;20437;-85
2022/06/05 00:56:03;;;;;;;11.77;10.87;;;;;;;;;;5057636;28;20453;-85
2022/06/05 00:58:32;;;;;;;11.20;10.37;;;;;;;;;;5057465;28;20499;-88
2022/06/05 01:00:59;;;;;;;11.40;10.50;;;;;;;;;;5057597;28;20434;-86
2022/06/05 01:03:26;;;;;;;11.30;10.53;;;;;;;;;;5056862;28;20909;-86
2022/06/05 01:05:54;;;;;;;11.67;10.77;;;;;;;;;;5056981;28;20425;-85
2022/06/05 01:08:22;;;;;;;11.90;11.00;;;;;;;;;;5059449;28;20464;-84
2022/06/05 01:10:57;;;;;;;10.93;9.93;;;;;;;;;;5057565;28;20742;-85
2022/06/05 01:13:29;;;;;;;11.33;10.53;;;;;;;;;;5057399;28;20441;-84
2022/06/05 01:15:58;;;;;;;10.07;9.37;;;;;;;;;;5056488;28;20483;-85
2022/06/05 01:18:28;;;;;;;10.97;10.27;;;;;;;;;;5055787;28;20473;-84
2022/06/05 01:21:01;;;;;;;12.30;11.33;;;;;;;;;;5055963;28;20438;-84
2022/06/05 01:23:32;;;;;;;10.43;9.73;;;;;;;;;;5055718;28;20441;-84
2022/06/05 01:26:15;;;;;;;11.30;10.40;;;;;;;;;;5056134;28;20786;-84
2022/06/05 01:28:54;;;;;;;10.97;10.23;;;;;;;;;;5054047;28;20544;-84
2022/06/05 01:31:25;;;;;;;11.70;10.70;;;;;;;;;;5056455;28;20426;-84
2022/06/05 01:33:53;;;;;;;11.07;10.27;;;;;;;;;;5056163;28;20446;-84
2022/06/05 01:36:24;;;;;;;10.77;10.07;;;;;;;;;;5056574;28;20445;-84
2022/06/05 01:38:54;;;;;;;11.00;10.20;;;;;;;;;;5057419;28;20538;-85
2022/06/05 01:41:24;;;;;;;12.17;11.27;;;;;;;;;;5056514;28;20433;-83
2022/06/05 01:43:55;;;;;;;11.97;11.17;;;;;;;;;;5055652;28;20449;-85
2022/06/05 01:46:24;;;;;;;11.30;10.40;;;;;;;;;;5056100;28;20438;-86
2022/06/05 01:48:53;;;;;;;11.63;10.83;;;;;;;;;;5056325;28;20819;-84
2022/06/05 01:51:24;;;;;;;12.50;11.50;;;;;;;;;;5060249;28;20472;-85
2022/06/05 01:53:52;;;;;;;11.40;10.50;;;;;;;;;;5058115;28;20446;-84
2022/06/05 01:56:22;;;;;;;12.40;11.50;;;;;;;;;;5055348;28;20418;-85
2022/06/05 01:58:51;;;;;;;11.23;10.40;;;;;;;;;;5054438;28;20854;-83
2022/06/05 02:01:21;;;;;;;11.80;10.83;;;;;;;;;;5054105;28;20867;-84
2022/06/05 02:03:52;;;;;;;14.83;10.30;;;;;;;;;;5054544;28;20824;-85
2022/06/05 02:06:22;;;;;;;11.10;10.30;;;;;;;;;;5054783;28;20467;-84
2022/06/05 02:08:51;;;;;;;11.27;10.50;;;;;;;;;;5062748;28;20457;-84
2022/06/05 02:11:20;;;;;;;12.80;11.90;;;;;;;;;;5064193;28;20537;-84
2022/06/05 02:13:48;;;;;;;13.17;12.17;;;;;;;;;;5058648;28;20446;-85
2022/06/05 02:16:15;;;;;;;11.43;10.53;;;;;;;;;;5058490;28;20438;-84
2022/06/05 02:18:44;;;;;;;12.10;11.10;;;;;;;;;;5057831;28;20531;-84
2022/06/05 02:21:11;;;;;;;11.63;10.83;;;;;;;;;;5057307;28;20446;-85
2022/06/05 02:23:39;;;;;;;11.20;10.40;;;;;;;;;;5056302;28;20457;-86
2022/06/05 02:26:07;;;;;;;11.33;10.53;;;;;;;;;;5057028;28;20876;-84
2022/06/05 02:28:34;;;;;;;11.90;11.10;;;;;;;;;;5057614;28;20495;-84
2022/06/05 02:31:04;;;;;;;11.43;10.63;;;;;;;;;;5056403;28;20442;-84
2022/06/05 02:33:36;;;;;;;12.10;10.90;;;;;;;;;;5055027;28;20429;-85
2022/06/05 02:36:07;;;;;;;12.53;11.33;;;;;;;;;;5056081;28;20833;-84
2022/06/05 02:38:41;;;;;;;11.77;10.97;;;;;;;;;;5056184;28;20465;-85
2022/06/05 02:41:11;;;;;;;12.13;11.23;;;;;;;;;;5057564;28;20526;-84
2022/06/05 02:43:43;;;;;;;13.17;12.20;;;;;;;;;;5057686;28;20418;-85
2022/06/05 02:46:12;;;;;;;12.23;11.27;;;;;;;;;;5056020;28;20418;-84
2022/06/05 02:48:42;;;;;;;12.20;11.30;;;;;;;;;;5055756;28;20445;-85
2022/06/05 02:51:13;;;;;;;12.57;11.57;;;;;;;;;;5056974;28;20477;-86
2022/06/05 02:53:47;;;;;;;12.37;11.47;;;;;;;;;;5062670;28;20430;-85
2022/06/05 02:56:14;;;;;;;12.80;11.90;;;;;;;;;;5069484;28;20467;-84
2022/06/05 02:58:42;;;;;;;12.63;11.63;;;;;;;;;;5069937;28;20485;-85
2022/06/05 03:04:07;;;;;;;14.03;12.83;;;;;;;;;;4991249;28;20452;-84
2022/06/05 03:06:35;;;;;;;14.33;13.13;;;;;;;;;;5050505;28;20441;-84
2022/06/05 03:09:02;;;;;;;14.30;13.20;;;;;;;;;;5066448;28;20504;-84
2022/06/05 03:11:30;;;;;;;14.23;13.13;;;;;;;;;;5068256;28;20476;-84
2022/06/05 03:13:57;;;;;;;13.87;12.83;;;;;;;;;;5067814;28;20445;-83
2022/06/05 03:16:24;;;;;;;14.70;13.60;;;;;;;;;;5067144;28;20465;-85
2022/06/05 03:18:51;;;;;;;14.43;13.13;;;;;;;;;;5067060;28;20496;-85
2022/06/05 03:21:18;;;;;;;13.07;12.10;;;;;;;;;;5066712;28;20447;-83
2022/06/05 03:23:48;;;;;;;13.83;12.70;;;;;;;;;;5067257;28;20445;-84
2022/06/05 03:26:15;;;;;;;13.33;12.20;;;;;;;;;;5068157;28;20780;-83
2022/06/05 03:28:42;;;;;;;13.60;12.30;;;;;;;;;;5067466;28;20450;-85
2022/06/05 03:31:10;;;;;;;13.17;12.17;;;;;;;;;;5066853;28;20429;-85
2022/06/05 03:33:37;;;;;;;12.87;11.87;;;;;;;;;;5064848;28;20450;-85
2022/06/05 03:36:08;;;;;;;13.43;12.33;;;;;;;;;;5060169;28;20473;-85
2022/06/05 03:38:35;;;;;;;13.90;12.80;;;;;;;;;;5055491;28;20466;-86
2022/06/05 03:41:04;;;;;;;14.20;13.10;;;;;;;;;;5064259;28;20433;-87
2022/06/05 03:43:32;;;;;;;13.60;12.53;;;;;;;;;;5075606;28;20426;-87
2022/06/05 03:46:02;;;;;;;13.57;12.57;;;;;;;;;;5075816;28;20472;-87
2022/06/05 03:48:29;;;;;;;13.70;12.70;;;;;;;;;;5075823;28;20428;-87
2022/06/05 03:50:56;;;;;;;13.40;12.40;;;;;;;;;;5075825;28;20519;-87
2022/06/05 03:53:23;;;;;;;14.87;13.57;;;;;;;;;;5075802;28;20445;-85
2022/06/05 03:55:50;;;;;;;13.87;12.70;;;;;;;;;;5076033;28;20429;-86
2022/06/05 03:58:18;;;;;;;13.90;12.70;;;;;;;;;;5062481;28;20577;-84
2022/06/05 04:00:45;;;;;;;13.67;12.67;;;;;;;;;;5055663;28;20429;-84
2022/06/05 04:03:12;;;;;;;13.27;12.37;;;;;;;;;;5056300;28;20883;-85
2022/06/05 04:05:39;;;;;;;13.47;12.47;;;;;;;;;;5059497;28;20437;-83
2022/06/05 04:08:07;;;;;;;14.10;13.07;;;;;;;;;;5059460;28;20442;-83
2022/06/05 04:10:34;;;;;;;12.90;11.90;;;;;;;;;;5054365;28;20481;-84
2022/06/05 04:13:01;;;;;;;14.03;13.00;;;;;;;;;;5056353;28;20449;-83
2022/06/05 04:15:29;;;;;;;14.10;13.00;;;;;;;;;;5056611;28;20444;-84
2022/06/05 04:17:56;;;;;;;13.93;12.93;;;;;;;;;;5057739;28;20441;-84
2022/06/05 04:20:23;;;;;;;14.37;13.37;;;;;;;;;;5058608;28;20450;-84
2022/06/05 04:22:50;;;;;;;14.43;13.20;;;;;;;;;;5058032;28;20444;-84
2022/06/05 04:25:18;;;;;;;14.60;13.50;;;;;;;;;;5061917;28;20511;-83
2022/06/05 04:27:45;;;;;;;16.10;14.90;;;;;;;;;;5059613;28;20453;-85
2022/06/05 04:30:12;;;;;;;15.10;14.00;;;;;;;;;;5058728;28;20473;-84
2022/06/05 04:32:41;;;;;;;16.90;15.50;;;;;;;;;;5057858;28;20457;-86
2022/06/05 04:35:08;;;;;;;16.30;15.00;;;;;;;;;;5058970;28;20457;-84
2022/06/05 04:37:36;;;;;;;16.27;14.97;;;;;;;;;;5059511;28;20442;-84
2022/06/05 04:40:03;;;;;;;16.27;14.83;;;;;;;;;;5058417;28;20477;-84
2022/06/05 04:42:31;;;;;;;16.27;14.97;;;;;;;;;;5058322;28;20430;-85
2022/06/05 04:44:58;;;;;;;17.30;16.00;;;;;;;;;;5068321;28;20465;-83
2022/06/05 04:47:25;;;;;;;17.40;15.93;;;;;;;;;;5076528;28;20437;-84
2022/06/05 04:49:54;;;;;;;16.87;15.50;;;;;;;;;;5075602;28;20454;-84
2022/06/05 04:52:21;;;;;;;16.30;15.20;;;;;;;;;;5074899;28;20433;-84
2022/06/05 04:54:49;;;;;;;17.83;16.43;;;;;;;;;;5074264;28;20442;-83
2022/06/05 04:57:16;;;;;;;17.90;16.50;;;;;;;;;;5069428;28;20457;-84
2022/06/05 04:59:43;;;;;;;18.10;16.70;;;;;;;;;;5057205;28;20539;-84
2022/06/05 05:02:10;;;;;;;17.63;16.17;;;;;;;;;;5057770;28;20460;-84
2022/06/05 05:04:37;;;;;;;16.10;14.83;;;;;;;;;;5056361;28;20453;-84
2022/06/05 05:07:16;;;;;;;17.13;15.83;;;;;;;;;;5056805;28;20449;-83
2022/06/05 05:09:43;;;;;;;16.90;15.70;;;;;;;;;;5055441;28;20469;-83
2022/06/05 05:12:10;;;;;;;18.53;17.03;;;;;;;;;;5056506;28;20458;-84
2022/06/05 05:14:38;;;;;;;18.77;17.27;;;;;;;;;;5054477;28;20446;-84
2022/06/05 05:17:05;;;;;;;19.03;17.53;;;;;;;;;;5056990;28;20964;-82
2022/06/05 05:19:32;;;;;;;18.50;16.83;;;;;;;;;;5055709;28;21015;-83
2022/06/05 05:21:59;;;;;;;18.90;17.40;;;;;;;;;;5053889;28;20519;-83
2022/06/05 05:24:29;;;;;;;20.03;18.47;;;;;;;;;;5066026;28;20442;-82
2022/06/05 05:26:56;;;;;;;20.50;18.70;;;;;;;;;;5062474;28;20426;-84
2022/06/05 05:29:23;;;;;;;21.00;19.20;;;;;;;;;;5055699;28;20516;-82
2022/06/05 05:31:50;;;;;;;20.97;19.37;;;;;;;;;;5056216;28;20434;-82
2022/06/05 05:34:17;;;;;;;20.67;18.80;;;;;;;;;;5055938;28;20445;-83
2022/06/05 05:36:44;;;;;;;22.37;20.27;;;;;;;;;;5056273;28;20496;-81
2022/06/05 05:42:06;;;;;;;21.03;19.33;;;;;;;;;;5057661;28;20420;-81
2022/06/05 05:44:35;;;;;;;23.70;21.60;;;;;;;;;;5057005;28;20503;-80
2022/06/05 05:47:02;;;;;;;22.30;20.30;;;;;;;;;;5057409;28;20815;-81
2022/06/05 05:49:29;;;;;;;22.43;20.60;;;;;;;;;;5058553;28;20520;-81
2022/06/05 05:51:56;;;;;;;23.27;21.43;;;;;;;;;;5064155;28;20983;-81
2022/06/05 05:54:23;;;;;;;21.10;19.40;;;;;;;;;;5060632;28;20441;-80
2022/06/05 05:56:51;;;;;;;22.87;20.87;;;;;;;;;;5056995;28;20453;-82
2022/06/05 05:59:20;;;;;;;23.60;21.63;;;;;;;;;;5057243;28;20576;-81
2022/06/05 06:01:47;;;;;;;24.10;22.00;;;;;;;;;;5056642;28;20442;-82
2022/06/05 06:04:14;;;;;;;21.27;19.67;;;;;;;;;;5057550;28;20541;-81
2022/06/05 06:06:42;;;;;;;21.63;20.03;;;;;;;;;;5062517;28;20822;-81
2022/06/05 06:09:09;;;;;;;22.10;20.20;;;;;;;;;;5064275;28;20886;-81
2022/06/05 06:11:36;;;;;;;21.27;19.50;;;;;;;;;;5069383;28;20444;-79
2022/06/05 06:14:04;;;;;;;21.63;19.70;;;;;;;;;;5076904;28;20544;-80
2022/06/05 06:16:33;;;;;;;22.07;20.37;;;;;;;;;;5077166;28;20437;-80
2022/06/05 06:19:00;;;;;;;20.90;19.30;;;;;;;;;;5074432;28;20480;-80
2022/06/05 06:21:27;;;;;;;19.03;17.23;;;;;;;;;;5068562;28;20445;-80
2022/06/05 06:23:54;;;;;;;18.20;16.60;;;;;;;;;;5076532;28;20448;-80
2022/06/05 06:26:21;;;;;;;17.13;15.73;;;;;;;;;;5077238;28;20448;-82
2022/06/05 06:28:48;;;;;;;13.77;12.57;;;;;;;;;;5076313;28;20518;-82
2022/06/05 06:31:16;;;;;;;13.93;12.40;;;;;;;;;;5086516;28;20440;-81
2022/06/05 06:33:48;;;;;;;14.37;13.37;;;;;;;;;;5076719;28;20441;-80
2022/06/05 06:36:16;;;;;;;15.83;14.23;;;;;;;;;;5063875;28;20441;-80
2022/06/05 06:38:43;;;;;;;17.67;16.20;;;;;;;;;;5054722;28;20523;-81
2022/06/05 06:41:11;;;;;;;16.53;15.07;;;;;;;;;;5064347;28;20441;-81
2022/06/05 06:43:39;;;;;;;14.50;13.33;;;;;;;;;;5074580;28;20441;-80
2022/06/05 06:46:07;;;;;;;14.33;13.13;;;;;;;;;;5074315;28;20436;-80
2022/06/05 06:48:34;;;;;;;13.20;12.00;;;;;;;;;;5075213;28;20536;-79
2022/06/05 06:51:03;;;;;;;12.77;11.47;;;;;;;;;;5075850;28;20456;-80
2022/06/05 06:53:31;;;;;;;10.93;10.03;;;;;;;;;;5075466;28;20495;-81
2022/06/05 06:55:58;;;;;;;11.03;10.20;;;;;;;;;;5075126;28;20445;-80
2022/06/05 06:58:26;;;;;;;10.43;9.43;;;;;;;;;;5074732;28;20452;-79
2022/06/05 07:00:53;;;;;;;10.40;9.60;;;;;;;;;;5075183;28;20539;-80
2022/06/05 07:03:20;;;;;;;11.63;10.73;;;;;;;;;;5075048;28;20460;-81
2022/06/05 07:05:47;;;;;;;10.80;9.90;;;;;;;;;;5075553;28;20494;-80
2022/06/05 07:08:15;;;;;;;9.67;8.77;;;;;;;;;;5064588;28;20805;-80
2022/06/05 07:10:42;;;;;;;10.63;9.73;;;;;;;;;;5055598;28;20473;-80
2022/06/05 07:13:09;;;;;;;10.10;9.10;;;;;;;;;;5054966;28;20503;-80
2022/06/05 07:15:36;;;;;;;7.63;6.93;;;;;;;;;;5055729;28;20438;-80
2022/06/05 07:18:04;;;;;;;6.90;6.40;;;;;;;;;;5055059;28;20472;-80
2022/06/05 07:20:33;;;;;;;7.70;7.03;;;;;;;;;;5055313;28;20490;-81
2022/06/05 07:23:00;;;;;;;7.90;7.23;;;;;;;;;;5055416;28;20426;-80
2022/06/05 07:25:28;;;;;;;8.80;7.70;;;;;;;;;;5055223;28;20434;-80
2022/06/05 07:27:55;;;;;;;8.13;7.53;;;;;;;;;;5054516;28;20949;-81
2022/06/05 07:30:23;;;;;;;7.93;7.13;;;;;;;;;;5054332;28;20466;-80
2022/06/05 07:32:50;;;;;;;8.40;7.80;;;;;;;;;;5054272;28;20438;-80
2022/06/05 07:35:18;;;;;;;8.30;7.70;;;;;;;;;;5054511;28;20434;-80
2022/06/05 07:37:45;;;;;;;7.83;6.93;;;;;;;;;;5054508;28;20969;-82
2022/06/05 07:40:12;;;;;;;9.67;7.40;;;;;;;;;;5054320;28;20477;-80
2022/06/05 07:42:42;;;;;;;6.73;6.20;;;;;;;;;;5054576;28;20449;-80
2022/06/05 07:45:09;;;;;;;8.10;7.40;;;;;;;;;;5054877;28;20449;-82
2022/06/05 07:47:36;;;;;;;7.67;7.10;;;;;;;;;;5055368;28;20503;-80
2022/06/05 07:50:04;;;;;;;9.33;8.63;;;;;;;;;;5054326;28;20538;-80
2022/06/05 07:55:16;;;;;;;7.10;6.60;;;;;;;;;;5054200;28;20393;-80
2022/06/05 07:57:45;;;;;;;7.23;6.50;;;;;;;;;;5055402;28;20491;-80
2022/06/05 08:00:12;;;;;;;6.53;6.03;;;;;;;;;;5059219;28;21057;-80
2022/06/05 08:02:40;;;;;;;7.27;6.67;;;;;;;;;;5059453;28;20508;-81
2022/06/05 08:05:07;;;;;;;7.30;6.60;;;;;;;;;;5059347;28;20449;-80
2022/06/05 08:07:35;;;;;;;6.50;5.90;;;;;;;;;;5058788;28;20437;-80
2022/06/05 08:10:03;;;;;;;5.80;5.30;;;;;;;;;;5058386;28;20465;-80
2022/06/05 08:12:35;;;;;;;6.60;6.00;;;;;;;;;;5058920;28;20440;-80
2022/06/05 08:15:05;;;;;;;5.30;4.93;;;;;;;;;;5058644;28;20499;-80
2022/06/05 08:17:32;;;;;;;5.53;5.23;;;;;;;;;;5059342;28;20955;-80
2022/06/05 08:20:00;;;;;;;5.30;4.83;;;;;;;;;;5058796;28;20480;-81
2022/06/05 08:22:27;;;;;;;6.43;4.90;;;;;;;;;;5063740;28;20494;-81
2022/06/05 08:24:54;;;;;;;5.27;4.77;;;;;;;;;;5070006;28;20436;-82
2022/06/05 08:27:23;;;;;;;5.23;4.70;;;;;;;;;;5069764;28;20457;-81
2022/06/05 08:29:50;;;;;;;5.10;4.70;;;;;;;;;;5070493;28;20496;-81
2022/06/05 08:32:19;;;;;;;4.57;4.17;;;;;;;;;;5069802;28;20456;-82
2022/06/05 08:34:46;;;;;;;4.80;4.40;;;;;;;;;;5070565;28;20437;-82
2022/06/05 08:42:50;;;;;;;6.07;5.13;;;;;;;;;;5069794;28;20440;-83
2022/06/05 08:45:20;;;;;;;4.70;4.33;;;;;;;;;;5062224;28;20560;-81
2022/06/05 08:47:50;;;;;;;4.03;3.73;;;;;;;;;;5061583;28;20438;-82
2022/06/05 08:50:24;;;;;;;3.60;3.37;;;;;;;;;;5063236;28;20895;-81
2022/06/05 08:52:52;;;;;;;3.00;2.80;;;;;;;;;;5062371;28;20472;-80
2022/06/05 08:55:24;;;;;;;3.50;3.20;;;;;;;;;;5059599;28;20809;-83
2022/06/05 08:57:54;;;;;;;3.70;3.13;;;;;;;;;;5056716;28;20863;-84
2022/06/05 09:00:25;;;;;;;3.07;2.80;;;;;;;;;;5056912;28;20523;-83
2022/06/05 09:02:57;;;;;;;3.33;3.03;;;;;;;;;;5057289;28;20940;-82
2022/06/05 09:05:26;;;;;;;4.83;2.97;;;;;;;;;;5069303;28;20438;-82
2022/06/05 09:07:55;;;;;;;2.43;2.33;;;;;;;;;;5069288;28;20465;-81
2022/06/05 09:10:23;;;;;;;2.20;2.10;;;;;;;;;;5070343;28;20564;-83
2022/06/05 09:12:53;;;;;;;2.73;2.53;;;;;;;;;;5069920;28;20449;-83
2022/06/05 09:15:27;;;;;;;3.87;2.60;;;;;;;;;;5059948;28;20968;-83
2022/06/05 09:17:57;;;;;;;3.03;2.73;;;;;;;;;;5060504;28;20429;-82
2022/06/05 09:20:28;;;;;;;2.50;2.07;;;;;;;;;;5061181;28;20485;-80
2022/06/05 09:22:59;;;;;;;4.00;2.97;;;;;;;;;;5059156;28;20421;-81
2022/06/05 09:25:39;;;;;;;2.50;2.30;;;;;;;;;;5064186;28;20437;-81
2022/06/05 09:28:24;;;;;;;4.50;2.20;;;;;;;;;;5069649;28;20460;-82
2022/06/05 09:30:53;;;;;;;2.60;2.13;;;;;;;;;;5068581;28;20443;-82
2022/06/05 09:33:24;;;;;;;2.73;2.20;;;;;;;;;;5068475;28;20450;-80
2022/06/05 09:35:53;;;;;;;2.83;1.93;;;;;;;;;;5063458;28;20434;-83
2022/06/05 09:38:23;;;;;;;2.20;1.93;;;;;;;;;;5056194;28;20975;-84
2022/06/05 09:40:58;;;;;;;4.37;2.30;;;;;;;;;;5057200;28;20950;-83
2022/06/05 09:43:40;;;;;;;2.00;1.83;;;;;;;;;;5057073;28;20835;-84
2022/06/05 09:46:17;;;;;;;1.80;1.63;;;;;;;;;;5056197;28;20520;-81
2022/06/05 09:48:50;;;;;;;3.97;2.03;;;;;;;;;;5057829;28;20457;-82
2022/06/05 09:51:19;;;;;;;1.83;1.73;;;;;;;;;;5057918;28;20484;-83
2022/06/05 09:53:49;;;;;;;4.53;1.90;;;;;;;;;;5056969;28;20847;-83
2022/06/05 09:56:20;;;;;;;3.20;3.00;;;;;;;;;;5058660;28;20430;-83
2022/06/05 09:59:03;;;;;;;2.70;2.10;;;;;;;;;;5055147;28;20446;-84
2022/06/05 10:01:31;;;;;;;1.93;1.70;;;;;;;;;;5058277;28;21059;-83
2022/06/05 10:04:00;;;;;;;1.80;1.70;;;;;;;;;;5058180;28;20441;-82
2022/06/05 10:06:29;;;;;;;3.83;1.90;;;;;;;;;;5056451;28;20945;-84
2022/06/05 10:08:58;;;;;;;3.13;2.00;;;;;;;;;;5055648;28;20876;-82
2022/06/05 10:11:29;;;;;;;1.70;1.60;;;;;;;;;;5054839;28;20434;-83
2022/06/05 10:14:16;;;;;;;5.00;2.00;;;;;;;;;;5054642;28;20491;-83
2022/06/05 10:16:47;;;;;;;2.73;1.90;;;;;;;;;;5056834;28;21003;-80
2022/06/05 10:19:25;;;;;;;1.77;1.67;;;;;;;;;;5057266;28;20469;-81
2022/06/05 10:21:58;;;;;;;2.10;1.50;;;;;;;;;;5057007;28;20503;-82
2022/06/05 10:24:30;;;;;;;2.67;2.20;;;;;;;;;;5045740;28;20450;-82
2022/06/05 10:27:00;;;;;;;1.90;1.63;;;;;;;;;;5039306;28;20439;-84
2022/06/05 10:29:30;;;;;;;2.03;1.67;;;;;;;;;;5035296;28;20512;-82
2022/06/05 10:32:00;;;;;;;2.20;1.57;;;;;;;;;;5037279;28;20454;-82
2022/06/05 10:34:34;;;;;;;2.50;2.03;;;;;;;;;;5036827;28;20450;-82
2022/06/05 10:37:04;;;;;;;1.70;1.60;;;;;;;;;;5038396;28;20467;-81
2022/06/05 10:39:35;;;;;;;1.60;1.60;;;;;;;;;;5037601;28;20517;-80
2022/06/05 10:42:08;;;;;;;2.17;1.97;;;;;;;;;;5040122;28;20481;-82
2022/06/05 10:44:37;;;;;;;3.43;2.00;;;;;;;;;;5067700;28;20453;-81
2022/06/05 10:47:08;;;;;;;3.17;2.50;;;;;;;;;;5068863;28;20417;-82
2022/06/05 10:49:42;;;;;;;2.83;2.63;;;;;;;;;;5068796;28;20758;-81
2022/06/05 10:52:15;;;;;;;4.90;3.60;;;;;;;;;;5068032;28;20441;-83
2022/06/05 10:54:46;;;;;;;3.40;3.20;;;;;;;;;;5063401;28;20441;-82
2022/06/05 10:57:17;;;;;;;4.73;4.23;;;;;;;;;;5058953;28;20509;-82
2022/06/05 10:59:49;;;;;;;5.00;4.10;;;;;;;;;;5055215;28;20473;-81
2022/06/05 11:02:34;;;;;;;4.73;4.33;;;;;;;;;;5048007;28;20446;-82
2022/06/05 11:05:08;;;;;;;4.87;4.50;;;;;;;;;;5054576;28;20442;-80
2022/06/05 11:07:46;;;;;;;4.37;4.00;;;;;;;;;;5048892;28;20495;-82
2022/06/05 11:10:17;;;;;;;5.50;5.00;;;;;;;;;;5053231;28;20824;-81
2022/06/05 11:15:39;;;;;;;7.43;5.40;;;;;;;;;;5057156;28;20900;-83
2022/06/05 11:18:14;;;;;;;9.70;5.00;;;;;;;;;;5056497;28;20457;-82
2022/06/05 11:20:44;;;;;;;4.97;4.57;;;;;;;;;;5054320;28;20480;-83
2022/06/05 11:23:14;;;;;;;5.40;5.07;;;;;;;;;;5053860;28;20430;-83
2022/06/05 11:25:53;;;;;;;5.60;5.10;;;;;;;;;;5054657;28;20450;-82
2022/06/05 11:28:28;;;;;;;5.43;4.40;;;;;;;;;;5061693;28;20453;-82
2022/06/05 11:31:03;;;;;;;8.27;4.73;;;;;;;;;;5059914;28;20441;-81
2022/06/05 11:33:31;;;;;;;6.27;5.23;;;;;;;;;;5044107;28;20472;-84
2022/06/05 11:36:04;;;;;;;4.97;4.47;;;;;;;;;;5047150;28;21036;-83
2022/06/05 11:38:35;;;;;;;5.77;5.23;;;;;;;;;;5061294;28;20445;-82
2022/06/05 11:41:04;;;;;;;4.70;3.87;;;;;;;;;;5065600;28;20484;-82
2022/06/05 11:43:33;;;;;;;6.57;4.77;;;;;;;;;;5061984;28;20447;-82
2022/06/05 11:46:04;;;;;;;6.03;4.30;;;;;;;;;;5060497;28;21157;-83
2022/06/05 11:48:36;;;;;;;4.20;3.77;;;;;;;;;;5061056;28;20433;-83
2022/06/05 11:51:07;;;;;;;4.67;4.10;;;;;;;;;;5059518;28;20920;-81
2022/06/05 11:53:39;;;;;;;4.23;3.80;;;;;;;;;;5058918;28;20972;-83
2022/06/05 11:56:15;;;;;;;6.50;4.13;;;;;;;;;;5057475;28;20465;-80
2022/06/05 11:58:45;;;;;;;5.33;4.17;;;;;;;;;;5060347;28;20511;-81
2022/06/05 12:01:13;;;;;;;4.07;3.67;;;;;;;;;;5045392;28;21067;-81
2022/06/05 12:03:43;;;;;;;3.47;3.17;;;;;;;;;;5055786;28;20434;-82
2022/06/05 12:06:14;;;;;;;3.60;3.30;;;;;;;;;;5059433;28;20445;-83
2022/06/05 12:08:44;;;;;;;5.10;4.60;;;;;;;;;;5059351;28;20426;-81
2022/06/05 12:11:13;;;;;;;3.47;3.17;;;;;;;;;;5061919;28;20442;-81
2022/06/05 12:13:48;;;;;;;4.07;3.53;;;;;;;;;;5063139;28;20495;-81
2022/06/05 12:16:18;;;;;;;3.00;2.80;;;;;;;;;;5069034;28;20483;-81
2022/06/05 12:18:49;;;;;;;4.13;2.77;;;;;;;;;;5074970;28;20450;-80
2022/06/05 12:21:20;;;;;;;4.63;2.73;;;;;;;;;;5073880;28;20481;-82
2022/06/05 12:23:50;;;;;;;4.33;3.00;;;;;;;;;;5062200;28;20426;-82
2022/06/05 12:26:21;;;;;;;3.40;2.60;;;;;;;;;;5053267;28;20461;-81
2022/06/05 12:28:51;;;;;;;3.80;2.70;;;;;;;;;;5043999;28;20471;-81
2022/06/05 12:31:19;;;;;;;3.83;2.67;;;;;;;;;;5059191;28;20434;-83
2022/06/05 12:33:51;;;;;;;3.37;2.33;;;;;;;;;;5058801;28;20451;-83
2022/06/05 12:36:27;;;;;;;6.37;2.60;;;;;;;;;;5059304;28;20426;-82
2022/06/05 12:38:56;;;;;;;2.60;2.40;;;;;;;;;;5055899;28;20516;-77
2022/06/05 12:41:24;;;;;;;3.40;2.97;;;;;;;;;;5054065;28;20504;-76
2022/06/05 12:44:01;;;;;;;3.60;2.83;;;;;;;;;;5053390;28;20465;-77
2022/06/05 12:46:31;;;;;;;3.53;2.60;;;;;;;;;;5054255;28;20528;-80
2022/06/05 12:49:06;;;;;;;3.67;2.40;;;;;;;;;;5055959;28;20548;-76
2022/06/05 12:51:34;;;;;;;5.63;2.83;;;;;;;;;;5054242;28;20503;-77
2022/06/05 12:54:03;;;;;;;3.57;2.63;;;;;;;;;;5054294;28;20444;-77
2022/06/05 12:56:32;;;;;;;3.50;2.53;;;;;;;;;;5054365;28;20495;-78
2022/06/05 12:59:05;;;;;;;6.43;3.03;;;;;;;;;;5053903;28;20491;-77
2022/06/05 13:01:35;;;;;;;2.80;2.43;;;;;;;;;;5054168;28;20511;-78
2022/06/05 13:04:06;;;;;;;3.53;2.50;;;;;;;;;;5053575;28;20944;-78
2022/06/05 13:06:40;;;;;;;2.93;2.70;;;;;;;;;;5047004;28;20449;-78
2022/06/05 13:09:12;;;;;;;2.73;2.53;;;;;;;;;;5045380;28;20469;-77
2022/06/05 13:11:40;;;;;;;5.03;3.40;;;;;;;;;;5051852;28;20452;-79
2022/06/05 13:14:11;;;;;;;3.73;2.53;;;;;;;;;;5053976;28;20442;-78
2022/06/05 13:16:40;;;;;;;6.43;2.70;;;;;;;;;;5054861;28;20441;-78
2022/06/05 13:19:22;;;;;;;2.67;2.33;;;;;;;;;;5054642;28;20454;-78
2022/06/05 13:21:54;;;;;;;3.80;2.50;;;;;;;;;;5055029;28;20568;-79
2022/06/05 13:24:28;;;;;;;4.10;2.30;;;;;;;;;;5053694;28;20893;-78
2022/06/05 13:26:58;;;;;;;3.77;2.00;;;;;;;;;;5053586;28;20433;-78
2022/06/05 13:29:32;;;;;;;2.53;2.13;;;;;;;;;;5053495;28;20465;-78
2022/06/05 13:32:03;;;;;;;6.23;2.17;;;;;;;;;;5053955;28;20445;-78
2022/06/05 13:34:33;;;;;;;2.40;2.20;;;;;;;;;;5052560;28;20507;-78
2022/06/05 13:37:03;;;;;;;3.20;2.80;;;;;;;;;;5053199;28;20936;-77
2022/06/05 13:39:33;;;;;;;2.70;2.47;;;;;;;;;;5055522;28;20470;-78
2022/06/05 13:42:04;;;;;;;2.97;2.33;;;;;;;;;;5054680;28;21123;-78
2022/06/05 13:44:33;;;;;;;6.33;2.70;;;;;;;;;;5054795;28;20453;-80
2022/06/05 13:47:08;;;;;;;3.10;2.60;;;;;;;;;;5055797;28;20483;-78
2022/06/05 13:49:39;;;;;;;2.67;2.40;;;;;;;;;;5054328;28;20471;-78
2022/06/05 13:52:13;;;;;;;5.10;2.73;;;;;;;;;;5053788;28;20418;-78
2022/06/05 13:54:45;;;;;;;7.00;2.93;;;;;;;;;;5053608;28;20454;-77
2022/06/05 13:57:16;;;;;;;3.83;2.50;;;;;;;;;;5052076;28;20971;-79
2022/06/05 13:59:47;;;;;;;3.07;2.53;;;;;;;;;;5050278;28;20535;-78
2022/06/05 14:02:27;;;;;;;2.80;2.40;;;;;;;;;;5052861;28;20520;-78
2022/06/05 14:04:58;;;;;;;5.80;3.17;;;;;;;;;;5052337;28;20499;-78
2022/06/05 14:07:29;;;;;;;3.00;2.67;;;;;;;;;;5052650;28;20446;-77
2022/06/05 14:10:06;;;;;;;4.40;3.00;;;;;;;;;;5052294;28;20473;-77
2022/06/05 14:12:33;;;;;;;2.90;2.60;;;;;;;;;;5052135;28;20952;-79
2022/06/05 14:15:13;;;;;;;2.37;2.17;;;;;;;;;;5052311;28;20438;-77
2022/06/05 14:17:45;;;;;;;3.77;2.93;;;;;;;;;;5052538;28;21106;-78
2022/06/05 14:20:16;;;;;;;2.67;2.30;;;;;;;;;;5052277;28;20575;-78
2022/06/05 14:22:45;;;;;;;2.47;2.37;;;;;;;;;;5052194;28;20878;-79
2022/06/05 14:25:19;;;;;;;3.57;2.50;;;;;;;;;;5051878;28;20449;-77
2022/06/05 14:27:46;;;;;;;2.03;1.80;;;;;;;;;;5051290;28;20521;-76
2022/06/05 14:30:19;;;;;;;1.63;1.53;;;;;;;;;;5050922;28;20531;-77
2022/06/05 14:32:47;;;;;;;2.10;1.73;;;;;;;;;;5051573;28;20430;-77
2022/06/05 14:35:21;;;;;;;1.80;1.67;;;;;;;;;;5050946;28;20487;-78
2022/06/05 14:37:54;;;;;;;3.83;2.27;;;;;;;;;;5063205;28;20472;-78
2022/06/05 14:40:22;;;;;;;1.87;1.77;;;;;;;;;;5071308;28;20469;-78
2022/06/05 14:42:52;;;;;;;2.17;1.90;;;;;;;;;;5070914;28;20542;-76
2022/06/05 14:45:22;;;;;;;2.37;2.17;;;;;;;;;;5070883;28;20505;-78
2022/06/05 14:47:51;;;;;;;3.37;2.40;;;;;;;;;;5071011;28;20518;-79
2022/06/05 14:50:21;;;;;;;2.37;2.10;;;;;;;;;;5071037;28;20519;-77
2022/06/05 14:52:56;;;;;;;2.73;1.90;;;;;;;;;;5071370;28;20437;-77
2022/06/05 14:58:14;;;;;;;1.87;1.77;;;;;;;;;;5055782;28;20437;-78
2022/06/05 15:00:45;;;;;;;2.10;2.00;;;;;;;;;;5050140;28;20469;-77
2022/06/05 15:03:15;;;;;;;2.20;2.00;;;;;;;;;;5049765;28;20885;-77
2022/06/05 15:05:44;;;;;;;2.30;2.00;;;;;;;;;;5050758;28;20948;-78